createdAt,value
2016-10-25T00:01:02.289Z,927.75
2016-10-25T00:02:13.306Z,927.75
2016-10-25T00:03:23.935Z,927.76
2016-10-25T00:04:34.485Z,927.75
2016-10-25T00:05:45.055Z,927.79
2016-10-25T00:06:55.591Z,927.78
2016-10-25T00:08:06.159Z,927.78
2016-10-25T00:09:16.804Z,927.83
2016-10-25T00:10:27.298Z,927.82
2016-10-25T00:11:37.866Z,927.87
2016-10-25T00:12:48.490Z,927.82
2016-10-25T00:13:59.043Z,927.86
2016-10-25T00:15:09.549Z,927.87
2016-10-25T00:16:20.064Z,927.85
2016-10-25T00:17:30.622Z,927.9
2016-10-25T00:18:41.173Z,927.9
2016-10-25T00:19:51.722Z,927.89
2016-10-25T00:21:02.296Z,927.91
2016-10-25T00:22:12.814Z,927.92
2016-10-25T00:23:23.332Z,927.95
2016-10-25T00:24:34.332Z,927.94
2016-10-25T00:25:44.882Z,927.97
2016-10-25T00:26:55.978Z,928.01
2016-10-25T00:28:06.531Z,928.03
2016-10-25T00:29:17.054Z,928.02
2016-10-25T00:30:27.579Z,928.01
2016-10-25T00:31:38.157Z,928.02
2016-10-25T00:32:48.831Z,928.09
2016-10-25T00:33:59.404Z,928.06
2016-10-25T00:35:09.919Z,928.1
2016-10-25T00:36:20.447Z,928.07
2016-10-25T00:37:31.454Z,928.06
2016-10-25T00:38:42.007Z,928.1
2016-10-25T00:39:52.546Z,928.03
2016-10-25T00:41:03.033Z,928.03
2016-10-25T00:42:13.590Z,928.02
2016-10-25T00:43:24.170Z,928.01
2016-10-25T00:44:34.653Z,928.01
2016-10-25T00:45:45.210Z,928.06
2016-10-25T00:46:55.769Z,928.06
2016-10-25T00:48:06.313Z,928.1
2016-10-25T00:49:16.820Z,928.09
2016-10-25T00:50:27.468Z,928.07
2016-10-25T00:51:38.458Z,928.04
2016-10-25T00:52:48.925Z,928.06
2016-10-25T00:53:59.438Z,928.11
2016-10-25T00:55:09.952Z,928.09
2016-10-25T00:56:20.535Z,928.1
2016-10-25T00:57:31.077Z,928.11
2016-10-25T00:58:41.633Z,928.13
2016-10-25T00:59:52.193Z,928.12
2016-10-25T01:01:02.714Z,928.17
2016-10-25T01:02:13.285Z,928.22
2016-10-25T01:03:23.778Z,928.16
2016-10-25T01:04:34.305Z,928.12
2016-10-25T01:05:44.851Z,928.09
2016-10-25T01:06:55.409Z,928.11
2016-10-25T01:08:05.936Z,928.08
2016-10-25T01:09:16.430Z,928.07
2016-10-25T01:10:26.938Z,928.06
2016-10-25T01:11:37.420Z,928.06
2016-10-25T01:12:47.885Z,928.05
2016-10-25T01:13:58.492Z,928.05
2016-10-25T01:15:08.980Z,928.06
2016-10-25T01:16:19.483Z,928.02
2016-10-25T01:17:30.025Z,928.09
2016-10-25T01:18:40.526Z,928.07
2016-10-25T01:19:51.074Z,928.12
2016-10-25T01:21:01.580Z,928.12
2016-10-25T01:22:12.058Z,928.16
2016-10-25T01:23:22.593Z,928.13
2016-10-25T01:24:33.065Z,928.14
2016-10-25T01:25:43.559Z,928.17
2016-10-25T01:26:54.094Z,928.16
2016-10-25T01:28:04.749Z,928.21
2016-10-25T01:29:15.330Z,928.17
2016-10-25T01:30:25.983Z,928.17
2016-10-25T01:31:36.616Z,928.21
2016-10-25T01:32:47.264Z,928.24
2016-10-25T01:33:57.848Z,928.29
2016-10-25T01:35:08.444Z,928.28
2016-10-25T01:36:18.961Z,928.27
2016-10-25T01:37:29.546Z,928.32
2016-10-25T01:38:40.020Z,928.31
2016-10-25T01:39:50.501Z,928.32
2016-10-25T01:41:01.040Z,928.31
2016-10-25T01:42:11.623Z,928.32
2016-10-25T01:43:22.286Z,928.35
2016-10-25T01:44:32.840Z,928.33
2016-10-25T01:45:43.383Z,928.29
2016-10-25T01:46:53.940Z,928.31
2016-10-25T01:48:04.517Z,928.29
2016-10-25T01:49:15.062Z,928.28
2016-10-25T01:50:25.592Z,928.26
2016-10-25T01:51:36.141Z,928.27
2016-10-25T01:52:46.680Z,928.26
2016-10-25T01:53:57.261Z,928.22
2016-10-25T01:55:07.777Z,928.22
2016-10-25T01:56:18.316Z,928.23
2016-10-25T01:57:28.848Z,928.22
2016-10-25T01:58:39.379Z,928.21
2016-10-25T01:59:49.918Z,928.19
2016-10-25T02:01:01.011Z,928.21
2016-10-25T02:02:11.532Z,928.21
2016-10-25T02:03:22.083Z,928.19
2016-10-25T02:04:32.642Z,928.16
2016-10-25T02:05:43.209Z,928.14
2016-10-25T02:06:53.843Z,928.11
2016-10-25T02:08:04.377Z,928.08
2016-10-25T02:09:14.904Z,928.05
2016-10-25T02:10:25.502Z,928
2016-10-25T02:11:36.567Z,927.95
2016-10-25T02:12:47.107Z,927.93
2016-10-25T02:13:57.622Z,927.85
2016-10-25T02:15:08.186Z,927.81
2016-10-25T02:16:18.763Z,927.83
2016-10-25T02:17:29.835Z,927.79
2016-10-25T02:18:40.405Z,927.79
2016-10-25T02:19:50.970Z,927.7
2016-10-25T02:21:21.251Z,927.68
2016-10-25T02:22:32.320Z,927.68
2016-10-25T02:23:42.992Z,927.64
2016-10-25T02:24:53.568Z,927.63
2016-10-25T02:26:04.137Z,927.59
2016-10-25T02:27:14.710Z,927.65
2016-10-25T02:28:25.289Z,927.59
2016-10-25T02:29:35.963Z,927.68
2016-10-25T02:30:46.543Z,927.7
2016-10-25T02:31:57.115Z,927.71
2016-10-25T02:33:07.686Z,927.71
2016-10-25T02:34:18.251Z,927.71
2016-10-25T02:35:29.325Z,927.71
2016-10-25T02:36:39.899Z,927.72
2016-10-25T02:37:50.513Z,927.73
2016-10-25T02:39:01.095Z,927.73
2016-10-25T02:40:11.678Z,927.74
2016-10-25T02:41:22.277Z,927.7
2016-10-25T02:42:32.851Z,927.67
2016-10-25T02:43:43.434Z,927.66
2016-10-25T02:44:54.011Z,927.64
2016-10-25T02:46:04.576Z,927.62
2016-10-25T02:47:15.248Z,927.6
2016-10-25T02:48:25.824Z,927.63
2016-10-25T02:49:36.405Z,927.65
2016-10-25T02:50:46.973Z,927.64
2016-10-25T02:51:57.557Z,927.67
2016-10-25T02:53:08.257Z,927.69
2016-10-25T02:54:18.840Z,927.69
2016-10-25T02:55:29.412Z,927.72
2016-10-25T02:56:39.991Z,927.71
2016-10-25T02:57:50.577Z,927.75
2016-10-25T02:59:01.150Z,927.79
2016-10-25T03:00:11.722Z,927.79
2016-10-25T03:01:22.295Z,927.76
2016-10-25T03:02:32.882Z,927.81
2016-10-25T03:03:43.463Z,927.77
2016-10-25T03:04:54.064Z,927.73
2016-10-25T03:06:04.649Z,927.77
2016-10-25T03:07:15.238Z,927.76
2016-10-25T03:08:25.794Z,927.76
2016-10-25T03:09:36.320Z,927.72
2016-10-25T03:10:46.894Z,927.73
2016-10-25T03:11:57.588Z,927.72
2016-10-25T03:13:08.073Z,927.75
2016-10-25T03:14:18.561Z,927.79
2016-10-25T03:15:29.134Z,927.82
2016-10-25T03:16:39.681Z,927.8
2016-10-25T03:17:50.162Z,927.82
2016-10-25T03:19:00.719Z,927.83
2016-10-25T03:20:11.274Z,927.82
2016-10-25T03:21:21.818Z,927.81
2016-10-25T03:22:32.366Z,927.81
2016-10-25T03:23:42.912Z,927.78
2016-10-25T03:24:53.455Z,927.79
2016-10-25T03:26:04.014Z,927.78
2016-10-25T03:27:14.526Z,927.74
2016-10-25T03:28:25.188Z,927.74
2016-10-25T03:29:35.737Z,927.77
2016-10-25T03:30:46.784Z,927.8
2016-10-25T03:31:57.351Z,927.77
2016-10-25T03:33:07.881Z,927.79
2016-10-25T03:34:18.415Z,927.78
2016-10-25T03:35:29.397Z,927.8
2016-10-25T03:36:39.961Z,927.75
2016-10-25T03:37:50.493Z,927.74
2016-10-25T03:39:01.042Z,927.76
2016-10-25T03:40:11.596Z,927.75
2016-10-25T03:41:22.350Z,927.73
2016-10-25T03:42:32.906Z,927.73
2016-10-25T03:43:43.412Z,927.78
2016-10-25T03:44:53.895Z,927.79
2016-10-25T03:46:04.528Z,927.81
2016-10-25T03:47:15.038Z,927.79
2016-10-25T03:48:25.560Z,927.82
2016-10-25T03:49:36.081Z,927.8
2016-10-25T03:50:46.645Z,927.82
2016-10-25T03:51:57.141Z,927.81
2016-10-25T03:53:07.661Z,927.84
2016-10-25T03:54:18.139Z,927.83
2016-10-25T03:55:28.663Z,927.88
2016-10-25T03:56:39.182Z,927.84
2016-10-25T03:57:49.993Z,927.86
2016-10-25T03:59:00.454Z,927.85
2016-10-25T04:00:10.952Z,927.84
2016-10-25T04:01:21.500Z,927.88
2016-10-25T04:02:32.034Z,927.84
2016-10-25T04:03:42.575Z,927.86
2016-10-25T04:04:53.156Z,927.86
2016-10-25T04:06:03.672Z,927.81
2016-10-25T04:07:14.252Z,927.84
2016-10-25T04:08:25.282Z,927.86
2016-10-25T04:09:35.950Z,927.81
2016-10-25T04:10:46.501Z,927.78
2016-10-25T04:11:57.067Z,927.78
2016-10-25T04:13:07.626Z,927.77
2016-10-25T04:14:18.180Z,927.76
2016-10-25T04:15:28.842Z,927.75
2016-10-25T04:16:39.426Z,927.73
2016-10-25T04:17:50.056Z,927.79
2016-10-25T04:19:01.069Z,927.76
2016-10-25T04:20:11.579Z,927.71
2016-10-25T04:21:22.123Z,927.76
2016-10-25T04:22:32.636Z,927.73
2016-10-25T04:23:43.235Z,927.74
2016-10-25T04:24:53.772Z,927.72
2016-10-25T04:26:04.328Z,927.67
2016-10-25T04:27:15.042Z,927.67
2016-10-25T04:28:25.577Z,927.65
2016-10-25T04:29:36.124Z,927.65
2016-10-25T04:30:46.652Z,927.57
2016-10-25T04:31:57.235Z,927.54
2016-10-25T04:33:08.426Z,927.53
2016-10-25T04:34:18.970Z,927.52
2016-10-25T04:35:29.488Z,927.48
2016-10-25T04:36:40.030Z,927.47
2016-10-25T04:37:50.583Z,927.45
2016-10-25T04:39:01.310Z,927.45
2016-10-25T04:40:11.815Z,927.43
2016-10-25T04:41:22.349Z,927.4
2016-10-25T04:42:33.414Z,927.41
2016-10-25T04:43:43.901Z,927.34
2016-10-25T04:44:54.415Z,927.33
2016-10-25T04:46:04.951Z,927.32
2016-10-25T04:47:15.447Z,927.33
2016-10-25T04:48:26.000Z,927.35
2016-10-25T04:49:36.521Z,927.32
2016-10-25T04:50:47.369Z,927.31
2016-10-25T04:51:57.879Z,927.3
2016-10-25T04:53:08.366Z,927.27
2016-10-25T04:54:18.879Z,927.25
2016-10-25T04:55:29.387Z,927.22
2016-10-25T04:56:39.932Z,927.21
2016-10-25T04:57:50.477Z,927.23
2016-10-25T04:59:01.000Z,927.24
2016-10-25T05:00:12.019Z,927.23
2016-10-25T05:01:22.557Z,927.2
2016-10-25T05:02:33.048Z,927.2
2016-10-25T05:03:44.125Z,927.18
2016-10-25T05:04:54.634Z,927.2
2016-10-25T05:06:05.173Z,927.2
2016-10-25T05:07:15.713Z,927.17
2016-10-25T05:08:26.338Z,927.17
2016-10-25T05:09:36.892Z,927.1
2016-10-25T05:10:47.468Z,927.1
2016-10-25T05:11:58.025Z,927.08
2016-10-25T05:13:08.575Z,927.1
2016-10-25T05:14:19.145Z,927.12
2016-10-25T05:15:29.749Z,927.13
2016-10-25T05:16:40.260Z,927.05
2016-10-25T05:17:50.795Z,927.05
2016-10-25T05:20:55.777Z,926.89
2016-10-25T05:22:06.320Z,926.9
2016-10-25T05:23:16.850Z,926.8
2016-10-25T05:24:27.429Z,926.79
2016-10-25T05:25:37.996Z,926.72
2016-10-25T05:26:48.582Z,926.62
2016-10-25T05:27:59.137Z,926.64
2016-10-25T05:29:09.656Z,926.59
2016-10-25T05:30:20.673Z,926.56
2016-10-25T05:31:31.241Z,926.56
2016-10-25T05:32:41.868Z,926.5
2016-10-25T05:33:52.378Z,926.48
2016-10-25T05:35:02.900Z,926.48
2016-10-25T05:36:13.425Z,926.45
2016-10-25T05:37:23.930Z,926.44
2016-10-25T05:38:34.472Z,926.45
2016-10-25T05:39:45.052Z,926.43
2016-10-25T05:40:55.629Z,926.44
2016-10-25T05:42:06.183Z,926.45
2016-10-25T05:43:16.739Z,926.46
2016-10-25T05:44:27.245Z,926.42
2016-10-25T05:45:37.813Z,926.45
2016-10-25T05:46:48.317Z,926.49
2016-10-25T05:47:58.845Z,926.56
2016-10-25T05:49:09.394Z,926.53
2016-10-25T05:50:20.032Z,926.6
2016-10-25T05:51:30.515Z,926.59
2016-10-25T05:52:41.009Z,926.62
2016-10-25T05:53:51.522Z,926.59
2016-10-25T05:55:02.065Z,926.64
2016-10-25T05:56:12.674Z,926.62
2016-10-25T05:57:23.204Z,926.64
2016-10-25T05:58:33.724Z,926.65
2016-10-25T05:59:44.220Z,926.67
2016-10-25T06:00:54.727Z,926.69
2016-10-25T06:02:05.276Z,926.71
2016-10-25T06:03:15.871Z,926.7
2016-10-25T06:04:26.406Z,926.72
2016-10-25T06:05:36.965Z,926.72
2016-10-25T06:06:47.502Z,926.76
2016-10-25T06:07:58.124Z,926.76
2016-10-25T06:09:08.584Z,926.75
2016-10-25T06:10:19.039Z,926.76
2016-10-25T06:11:29.503Z,926.78
2016-10-25T06:12:39.951Z,926.8
2016-10-25T06:13:50.508Z,926.8
2016-10-25T06:15:00.976Z,926.79
2016-10-25T06:16:11.436Z,926.85
2016-10-25T06:17:21.900Z,926.84
2016-10-25T06:18:32.354Z,926.88
2016-10-25T06:19:42.812Z,926.89
2016-10-25T06:20:53.262Z,926.91
2016-10-25T06:22:03.754Z,926.94
2016-10-25T06:23:14.214Z,926.98
2016-10-25T06:24:24.675Z,926.99
2016-10-25T06:25:35.131Z,926.99
2016-10-25T06:26:45.585Z,927.01
2016-10-25T06:27:56.072Z,927.03
2016-10-25T06:29:06.515Z,927.05
2016-10-25T06:30:17.453Z,927.16
2016-10-25T06:31:28.020Z,927.22
2016-10-25T06:32:38.496Z,927.31
2016-10-25T06:33:48.960Z,927.36
2016-10-25T06:34:59.422Z,927.4
2016-10-25T06:36:09.882Z,927.41
2016-10-25T06:37:20.441Z,927.45
2016-10-25T06:38:30.935Z,927.39
2016-10-25T06:39:41.401Z,927.33
2016-10-25T06:40:51.916Z,927.28
2016-10-25T06:42:02.916Z,927.29
2016-10-25T06:43:13.412Z,927.33
2016-10-25T06:44:23.920Z,927.4
2016-10-25T06:45:34.421Z,927.49
2016-10-25T06:46:45.362Z,927.59
2016-10-25T06:47:55.868Z,927.65
2016-10-25T06:49:06.353Z,927.66
2016-10-25T06:50:16.863Z,927.68
2016-10-25T06:51:27.350Z,927.61
2016-10-25T06:52:37.846Z,927.54
2016-10-25T06:53:48.852Z,927.52
2016-10-25T06:54:59.430Z,927.43
2016-10-25T06:56:09.946Z,927.39
2016-10-25T06:57:20.473Z,927.42
2016-10-25T06:58:30.968Z,927.44
2016-10-25T06:59:41.905Z,927.5
2016-10-25T07:00:52.474Z,927.52
2016-10-25T07:02:02.956Z,927.55
2016-10-25T07:03:13.437Z,927.51
2016-10-25T07:04:23.909Z,927.54
2016-10-25T07:05:34.427Z,927.49
2016-10-25T07:06:44.921Z,927.47
2016-10-25T07:07:55.415Z,927.44
2016-10-25T07:09:06.352Z,927.43
2016-10-25T07:10:16.828Z,927.44
2016-10-25T07:11:27.322Z,927.38
2016-10-25T07:12:38.368Z,927.38
2016-10-25T07:13:49.384Z,927.32
2016-10-25T07:15:00.351Z,927.27
2016-10-25T07:16:10.852Z,927.31
2016-10-25T07:17:21.344Z,927.3
2016-10-25T07:18:31.983Z,927.35
2016-10-25T07:19:42.507Z,927.36
2016-10-25T07:20:52.960Z,927.4
2016-10-25T07:22:03.448Z,927.47
2016-10-25T07:23:13.942Z,927.47
2016-10-25T07:24:24.508Z,927.45
2016-10-25T07:25:35.027Z,927.45
2016-10-25T07:26:45.561Z,927.45
2016-10-25T07:27:56.062Z,927.41
2016-10-25T07:29:06.590Z,927.46
2016-10-25T07:30:17.123Z,927.42
2016-10-25T07:31:27.613Z,927.38
2016-10-25T07:32:38.114Z,927.34
2016-10-25T07:33:48.648Z,927.33
2016-10-25T07:34:59.180Z,927.38
2016-10-25T07:36:09.695Z,927.39
2016-10-25T07:37:20.208Z,927.38
2016-10-25T07:38:30.665Z,927.47
2016-10-25T07:39:41.149Z,927.44
2016-10-25T07:40:51.643Z,927.44
2016-10-25T07:42:02.229Z,927.43
2016-10-25T07:43:12.703Z,927.42
2016-10-25T07:44:23.208Z,927.44
2016-10-25T07:45:33.735Z,927.43
2016-10-25T07:46:44.217Z,927.46
2016-10-25T07:47:54.815Z,927.52
2016-10-25T07:49:05.347Z,927.51
2016-10-25T07:50:15.910Z,927.51
2016-10-25T07:51:26.477Z,927.53
2016-10-25T07:52:37.019Z,927.52
2016-10-25T07:53:47.537Z,927.48
2016-10-25T07:54:58.086Z,927.46
2016-10-25T07:56:08.659Z,927.44
2016-10-25T07:57:19.147Z,927.41
2016-10-25T07:58:29.694Z,927.4
2016-10-25T07:59:40.303Z,927.36
2016-10-25T08:00:50.860Z,927.34
2016-10-25T08:02:01.364Z,927.31
2016-10-25T08:03:11.817Z,927.3
2016-10-25T08:04:22.352Z,927.29
2016-10-25T08:05:32.971Z,927.32
2016-10-25T08:06:43.512Z,927.28
2016-10-25T08:07:54.070Z,927.27
2016-10-25T08:09:04.620Z,927.22
2016-10-25T08:10:15.147Z,927.22
2016-10-25T08:11:25.783Z,927.16
2016-10-25T08:12:36.814Z,927.13
2016-10-25T08:13:47.337Z,927.11
2016-10-25T08:14:57.899Z,927.04
2016-10-25T08:16:08.501Z,927.02
2016-10-25T08:17:19.047Z,927.03
2016-10-25T08:18:29.592Z,927.06
2016-10-25T08:19:40.634Z,927.02
2016-10-25T08:20:51.135Z,927
2016-10-25T08:22:01.740Z,927.04
2016-10-25T08:23:12.311Z,927.04
2016-10-25T08:24:22.891Z,927.08
2016-10-25T08:25:33.458Z,927.11
2016-10-25T08:26:44.031Z,927.06
2016-10-25T08:27:54.643Z,927.07
2016-10-25T08:29:05.330Z,927.09
2016-10-25T08:30:15.898Z,927.09
2016-10-25T08:31:26.487Z,927.12
2016-10-25T08:32:37.556Z,927.09
2016-10-25T08:33:48.622Z,927.09
2016-10-25T08:34:59.297Z,927.08
2016-10-25T08:36:09.918Z,927.08
2016-10-25T08:37:20.488Z,927.06
2016-10-25T08:38:31.066Z,927.05
2016-10-25T08:39:41.669Z,927.05
2016-10-25T08:40:52.235Z,927.03
2016-10-25T08:42:02.840Z,927.04
2016-10-25T08:43:13.423Z,927.06
2016-10-25T08:44:24.004Z,927.06
2016-10-25T08:45:34.568Z,927.09
2016-10-25T08:46:45.151Z,927.11
2016-10-25T08:47:55.725Z,927.12
2016-10-25T08:49:06.782Z,927.12
2016-10-25T08:50:17.349Z,927.1
2016-10-25T08:51:27.916Z,927.13
2016-10-25T08:52:38.494Z,927.1
2016-10-25T08:53:49.722Z,927.06
2016-10-25T08:55:00.298Z,927.06
2016-10-25T08:56:10.876Z,926.98
2016-10-25T08:57:21.457Z,926.98
2016-10-25T08:58:32.121Z,926.93
2016-10-25T08:59:42.679Z,926.84
2016-10-25T09:00:53.250Z,926.84
2016-10-25T09:02:03.823Z,926.85
2016-10-25T09:03:14.396Z,926.88
2016-10-25T09:04:24.977Z,926.95
2016-10-25T09:05:35.551Z,927
2016-10-25T09:06:46.126Z,927.09
2016-10-25T09:07:56.696Z,927.12
2016-10-25T09:09:07.275Z,927.16
2016-10-25T09:10:17.955Z,927.19
2016-10-25T09:11:28.539Z,927.15
2016-10-25T09:12:39.107Z,927.15
2016-10-25T09:13:49.688Z,927.09
2016-10-25T09:15:00.276Z,927.12
2016-10-25T09:16:10.985Z,927.05
2016-10-25T09:17:22.065Z,927.07
2016-10-25T09:18:32.638Z,926.99
2016-10-25T09:19:43.212Z,926.95
2016-10-25T09:20:53.778Z,926.93
2016-10-25T09:22:04.348Z,926.95
2016-10-25T09:23:14.920Z,926.97
2016-10-25T09:24:25.994Z,926.95
2016-10-25T09:25:36.562Z,926.93
2016-10-25T09:26:47.141Z,926.93
2016-10-25T09:27:57.811Z,926.95
2016-10-25T09:29:08.405Z,926.95
2016-10-25T09:30:18.992Z,926.91
2016-10-25T09:31:29.573Z,926.94
2016-10-25T09:32:40.138Z,926.91
2016-10-25T09:33:50.851Z,926.97
2016-10-25T09:35:01.425Z,926.97
2016-10-25T09:36:12.003Z,926.99
2016-10-25T09:37:22.578Z,926.99
2016-10-25T09:38:33.165Z,926.99
2016-10-25T09:39:43.736Z,926.99
2016-10-25T09:40:54.307Z,927.05
2016-10-25T09:42:04.881Z,927.02
2016-10-25T09:43:15.457Z,927.01
2016-10-25T09:44:26.025Z,927.02
2016-10-25T09:45:36.729Z,927.01
2016-10-25T09:46:47.303Z,926.97
2016-10-25T09:47:57.878Z,926.97
2016-10-25T09:49:08.501Z,926.95
2016-10-25T09:50:19.082Z,927.01
2016-10-25T09:51:29.752Z,927.02
2016-10-25T09:52:40.319Z,927.03
2016-10-25T09:53:50.895Z,927.03
2016-10-25T09:55:01.466Z,927.11
2016-10-25T09:56:12.043Z,927.12
2016-10-25T09:57:22.619Z,927.13
2016-10-25T09:58:33.192Z,927.17
2016-10-25T09:59:43.812Z,927.18
2016-10-25T10:00:54.373Z,927.27
2016-10-25T10:02:04.885Z,927.27
2016-10-25T10:03:15.510Z,927.29
2016-10-25T10:04:26.017Z,927.28
2016-10-25T10:05:36.506Z,927.31
2016-10-25T10:06:47.003Z,927.32
2016-10-25T10:07:57.605Z,927.28
2016-10-25T10:09:08.235Z,927.29
2016-10-25T10:10:18.835Z,927.33
2016-10-25T10:11:29.320Z,927.32
2016-10-25T10:12:39.770Z,927.21
2016-10-25T10:13:50.253Z,927.35
2016-10-25T10:15:00.722Z,927.36
2016-10-25T10:16:11.203Z,927.3
2016-10-25T10:17:21.689Z,927.29
2016-10-25T10:18:32.195Z,927.26
2016-10-25T10:19:42.697Z,927.3
2016-10-25T10:20:53.284Z,927.26
2016-10-25T10:22:03.768Z,927.3
2016-10-25T10:23:14.316Z,927.32
2016-10-25T10:24:24.765Z,927.36
2016-10-25T10:25:35.287Z,927.43
2016-10-25T10:26:45.905Z,927.49
2016-10-25T10:27:56.382Z,927.52
2016-10-25T10:29:06.857Z,927.52
2016-10-25T10:30:17.340Z,927.56
2016-10-25T10:31:27.835Z,927.59
2016-10-25T10:32:38.441Z,927.68
2016-10-25T10:33:48.963Z,927.55
2016-10-25T10:34:59.489Z,927.78
2016-10-25T10:36:09.986Z,927.81
2016-10-25T10:37:20.477Z,927.84
2016-10-25T10:38:31.087Z,927.64
2016-10-25T10:39:41.566Z,927.71
2016-10-25T10:40:52.072Z,927.8
2016-10-25T10:42:02.612Z,927.85
2016-10-25T10:43:13.141Z,927.9
2016-10-25T10:44:23.675Z,927.98
2016-10-25T10:45:34.195Z,927.88
2016-10-25T10:46:44.674Z,928.34
2016-10-25T10:47:55.197Z,928.51
2016-10-25T10:49:05.715Z,928.06
2016-10-25T10:50:16.311Z,928
2016-10-25T10:51:26.921Z,927.94
2016-10-25T10:52:37.424Z,927.9
2016-10-25T10:53:47.935Z,927.78
2016-10-25T10:54:58.967Z,927.81
2016-10-25T10:56:09.473Z,927.8
2016-10-25T10:57:19.965Z,927.76
2016-10-25T10:58:30.453Z,927.73
2016-10-25T10:59:40.944Z,927.71
2016-10-25T11:00:51.534Z,927.72
2016-10-25T11:02:02.128Z,927.76
2016-10-25T11:03:12.660Z,927.74
2016-10-25T11:04:23.154Z,927.78
2016-10-25T11:05:33.666Z,927.81
2016-10-25T11:06:44.178Z,927.87
2016-10-25T11:07:54.774Z,927.88
2016-10-25T11:09:05.316Z,927.91
2016-10-25T11:10:15.850Z,927.87
2016-10-25T11:11:26.390Z,927.86
2016-10-25T11:12:36.961Z,927.92
2016-10-25T11:13:48.092Z,928
2016-10-25T11:14:58.639Z,928.03
2016-10-25T11:16:09.636Z,928.06
2016-10-25T11:17:20.190Z,927.94
2016-10-25T11:18:30.775Z,927.99
2016-10-25T11:19:41.252Z,927.99
2016-10-25T11:20:51.759Z,927.98
2016-10-25T11:22:02.263Z,927.99
2016-10-25T11:23:12.789Z,928.04
2016-10-25T11:24:23.338Z,927.94
2016-10-25T11:25:33.998Z,927.99
2016-10-25T11:26:44.505Z,928.03
2016-10-25T11:27:55.059Z,927.97
2016-10-25T11:29:05.640Z,928
2016-10-25T11:30:16.185Z,928.05
2016-10-25T11:31:26.722Z,928.15
2016-10-25T11:32:37.356Z,928.21
2016-10-25T11:33:47.932Z,928.14
2016-10-25T11:34:58.473Z,928.19
2016-10-25T11:36:09.024Z,928.25
2016-10-25T11:37:19.677Z,928.22
2016-10-25T11:38:30.229Z,928.27
2016-10-25T11:39:40.750Z,928.23
2016-10-25T11:40:51.235Z,928.25
2016-10-25T11:42:02.211Z,928.22
2016-10-25T11:43:12.721Z,928.21
2016-10-25T11:44:23.280Z,928.25
2016-10-25T11:45:33.854Z,928.26
2016-10-25T11:46:44.386Z,928.28
2016-10-25T11:47:54.883Z,928.34
2016-10-25T11:49:05.543Z,928.3
2016-10-25T11:50:16.156Z,928.35
2016-10-25T11:51:27.653Z,928.36
2016-10-25T11:52:38.157Z,928.39
2016-10-25T11:53:48.703Z,928.39
2016-10-25T11:54:59.245Z,928.35
2016-10-25T11:56:09.783Z,928.41
2016-10-25T11:57:20.334Z,928.37
2016-10-25T11:58:30.888Z,928.45
2016-10-25T11:59:41.406Z,928.5
2016-10-25T12:00:52.066Z,928.52
2016-10-25T12:02:02.649Z,928.48
2016-10-25T12:03:13.224Z,928.48
2016-10-25T12:04:23.760Z,928.47
2016-10-25T12:05:34.266Z,928.52
2016-10-25T12:06:44.897Z,928.51
2016-10-25T12:07:55.425Z,928.65
2016-10-25T12:09:05.969Z,928.73
2016-10-25T12:10:16.520Z,928.78
2016-10-25T12:11:27.038Z,928.7
2016-10-25T12:12:37.568Z,928.76
2016-10-25T12:13:48.592Z,928.82
2016-10-25T12:14:59.128Z,928.79
2016-10-25T12:16:09.671Z,928.73
2016-10-25T12:17:20.223Z,928.8
2016-10-25T12:18:30.822Z,928.77
2016-10-25T12:19:41.395Z,928.78
2016-10-25T12:20:51.968Z,928.8
2016-10-25T12:22:02.548Z,928.85
2016-10-25T12:23:13.071Z,928.9
2016-10-25T12:24:23.697Z,928.97
2016-10-25T12:25:34.259Z,928.95
2016-10-25T12:26:44.779Z,928.89
2016-10-25T12:27:55.332Z,928.89
2016-10-25T12:29:06.356Z,928.85
2016-10-25T12:30:16.908Z,928.89
2016-10-25T12:31:27.472Z,928.9
2016-10-25T12:32:37.982Z,928.91
2016-10-25T12:33:48.519Z,928.92
2016-10-25T12:34:59.078Z,928.87
2016-10-25T12:36:10.197Z,928.9
2016-10-25T12:37:20.704Z,928.91
2016-10-25T12:38:31.763Z,928.92
2016-10-25T12:39:42.281Z,928.89
2016-10-25T12:40:52.841Z,928.9
2016-10-25T12:42:03.392Z,928.89
2016-10-25T12:43:13.897Z,928.91
2016-10-25T12:44:24.449Z,928.94
2016-10-25T12:45:35.022Z,928.9
2016-10-25T12:46:45.530Z,928.84
2016-10-25T12:47:56.118Z,928.93
2016-10-25T12:49:06.662Z,928.98
2016-10-25T12:50:17.163Z,928.98
2016-10-25T12:51:27.664Z,928.96
2016-10-25T12:52:38.176Z,928.96
2016-10-25T12:53:48.792Z,928.95
2016-10-25T12:54:59.361Z,928.92
2016-10-25T12:56:09.935Z,928.96
2016-10-25T12:57:20.482Z,928.99
2016-10-25T12:58:30.992Z,928.97
2016-10-25T12:59:41.603Z,928.97
2016-10-25T13:00:52.128Z,929
2016-10-25T13:02:02.678Z,929
2016-10-25T13:03:13.193Z,929.04
2016-10-25T13:04:23.710Z,929.04
2016-10-25T13:05:34.243Z,929.06
2016-10-25T13:06:44.782Z,929.09
2016-10-25T13:07:55.328Z,929.06
2016-10-25T13:09:05.871Z,929.07
2016-10-25T13:10:16.411Z,929.11
2016-10-25T13:11:27.056Z,929.13
2016-10-25T13:12:37.578Z,929.14
2016-10-25T13:13:48.111Z,929.16
2016-10-25T13:14:58.685Z,929.18
2016-10-25T13:16:09.274Z,929.2
2016-10-25T13:17:19.909Z,929.23
2016-10-25T13:18:30.435Z,929.24
2016-10-25T13:19:40.964Z,929.29
2016-10-25T13:20:51.504Z,929.33
2016-10-25T13:22:02.075Z,929.32
2016-10-25T13:23:12.648Z,929.31
2016-10-25T13:24:23.721Z,929.27
2016-10-25T13:25:34.828Z,929.32
2016-10-25T13:26:45.431Z,929.32
2016-10-25T13:27:56.011Z,929.31
2016-10-25T13:29:06.678Z,929.33
2016-10-25T13:30:17.269Z,929.25
2016-10-25T13:31:28.824Z,929.25
2016-10-25T13:32:39.409Z,929.2
2016-10-25T13:33:49.994Z,929.2
2016-10-25T13:35:00.622Z,929.22
2016-10-25T13:36:11.217Z,929.22
2016-10-25T13:37:21.798Z,929.24
2016-10-25T13:38:32.378Z,929.2
2016-10-25T13:39:43.000Z,929.19
2016-10-25T13:40:53.689Z,929.19
2016-10-25T13:42:04.312Z,929.17
2016-10-25T13:43:14.890Z,929.15
2016-10-25T13:44:25.468Z,929.14
2016-10-25T13:45:36.046Z,929.1
2016-10-25T13:46:46.627Z,929.12
2016-10-25T13:47:57.306Z,929.09
2016-10-25T13:49:07.877Z,929.03
2016-10-25T13:50:18.459Z,929.04
2016-10-25T13:51:29.038Z,929.09
2016-10-25T13:52:39.719Z,929.13
2016-10-25T13:53:50.294Z,929.09
2016-10-25T13:55:00.871Z,929.08
2016-10-25T13:56:11.452Z,929.07
2016-10-25T13:57:22.037Z,929.01
2016-10-25T13:58:32.621Z,929.01
2016-10-25T13:59:43.215Z,929.01
2016-10-25T14:00:53.799Z,928.99
2016-10-25T14:02:05.087Z,929.02
2016-10-25T14:03:16.165Z,928.96
2016-10-25T14:04:26.841Z,928.93
2016-10-25T14:05:37.412Z,928.95
2016-10-25T14:06:47.990Z,928.98
2016-10-25T14:07:58.576Z,928.98
2016-10-25T14:09:09.187Z,928.98
2016-10-25T14:10:20.370Z,928.98
2016-10-25T14:11:30.947Z,928.99
2016-10-25T14:12:41.534Z,929.02
2016-10-25T14:13:52.113Z,929.07
2016-10-25T14:15:02.696Z,929.07
2016-10-25T14:16:13.280Z,929.04
2016-10-25T14:17:23.871Z,929.02
2016-10-25T14:18:34.467Z,929.01
2016-10-25T14:19:45.091Z,928.93
2016-10-25T14:20:55.707Z,928.99
2016-10-25T14:22:06.410Z,929
2016-10-25T14:23:16.995Z,929
2016-10-25T14:24:27.587Z,929.01
2016-10-25T14:25:38.666Z,929.03
2016-10-25T14:26:49.741Z,928.99
2016-10-25T14:28:00.340Z,928.87
2016-10-25T14:29:10.920Z,928.88
2016-10-25T14:30:21.464Z,928.89
2016-10-25T14:31:31.982Z,928.83
2016-10-25T14:32:43.051Z,928.88
2016-10-25T14:33:53.693Z,928.94
2016-10-25T14:35:04.197Z,928.99
2016-10-25T14:36:14.742Z,929.06
2016-10-25T14:37:25.280Z,928.99
2016-10-25T14:38:35.767Z,928.99
2016-10-25T14:39:46.349Z,928.92
2016-10-25T14:40:56.845Z,928.88
2016-10-25T14:42:07.442Z,928.69
2016-10-25T14:43:17.991Z,928.51
2016-10-25T14:44:29.063Z,928.48
2016-10-25T14:45:39.763Z,928.48
2016-10-25T14:46:50.262Z,928.35